createdAt,value
2022-09-21T00:00:00.171Z,64.73
2022-09-21T00:02:29.474Z,64.90
2022-09-21T00:04:58.404Z,65.10
2022-09-21T00:07:30.162Z,65.01
2022-09-21T00:09:59.422Z,65.12
2022-09-21T00:12:32.024Z,65.26
2022-09-21T00:15:01.481Z,65.27
2022-09-21T00:17:32.610Z,65.23
2022-09-21T00:20:05.502Z,65.21
2022-09-21T00:22:36.559Z,65.42
2022-09-21T00:25:05.937Z,65.54
2022-09-21T00:27:34.700Z,65.51
2022-09-21T00:30:05.273Z,65.51
2022-09-21T00:32:37.345Z,65.68
2022-09-21T00:35:08.183Z,65.79
2022-09-21T00:37:40.033Z,65.62
2022-09-21T00:40:09.277Z,65.64
2022-09-21T00:42:39.055Z,65.76
2022-09-21T00:45:21.552Z,65.77
2022-09-21T00:47:53.409Z,65.87
2022-09-21T00:50:26.649Z,65.80
2022-09-21T00:52:58.492Z,65.95
2022-09-21T00:55:35.223Z,65.81
2022-09-21T00:58:09.627Z,65.93
2022-09-21T01:00:40.646Z,66.10
2022-09-21T01:03:12.461Z,65.97
2022-09-21T01:05:43.580Z,66.04
2022-09-21T01:08:15.604Z,66.25
2022-09-21T01:10:57.892Z,66.16
2022-09-21T01:13:55.965Z,66.19
2022-09-21T01:16:56.464Z,66.29
2022-09-21T01:20:16.230Z,66.49
2022-09-21T01:23:05.315Z,66.49
2022-09-21T01:25:48.969Z,66.48
2022-09-21T01:28:30.682Z,66.62
2022-09-21T01:31:06.554Z,66.57
2022-09-21T01:33:42.942Z,66.83
2022-09-21T01:36:15.742Z,66.82
2022-09-21T01:38:50.432Z,66.54
2022-09-21T01:41:24.941Z,66.78
2022-09-21T01:43:57.923Z,66.74
2022-09-21T01:46:32.909Z,66.85
2022-09-21T01:49:07.324Z,66.78
2022-09-21T01:51:36.818Z,66.75
2022-09-21T01:54:14.704Z,66.89
2022-09-21T01:56:52.256Z,66.92
2022-09-21T01:59:45.896Z,66.91
2022-09-21T02:02:22.642Z,66.83
2022-09-21T02:04:52.268Z,66.76
2022-09-21T02:07:22.330Z,66.98
2022-09-21T02:09:51.246Z,67.01
2022-09-21T02:12:22.378Z,67.14
2022-09-21T02:14:55.922Z,66.90
2022-09-21T02:18:10.147Z,67.11
2022-09-21T02:20:51.126Z,67.32
2022-09-21T02:23:24.414Z,67.29
2022-09-21T02:26:02.474Z,67.30
2022-09-21T02:28:56.653Z,67.40
2022-09-21T02:31:40.556Z,67.21
2022-09-21T02:34:33.869Z,67.16
2022-09-21T02:37:22.652Z,66.95
2022-09-21T02:39:57.123Z,67.07
2022-09-21T02:42:31.756Z,67.28
2022-09-21T02:45:18.630Z,67.35
2022-09-21T02:47:56.990Z,67.26
2022-09-21T02:50:39.496Z,67.39
2022-09-21T02:53:11.789Z,67.47
2022-09-21T02:55:42.497Z,67.43
2022-09-21T02:58:15.095Z,67.24
2022-09-21T03:00:44.778Z,67.44
2022-09-21T03:03:18.914Z,67.55
2022-09-21T03:05:50.720Z,67.58
2022-09-21T03:08:22.775Z,67.57
2022-09-21T03:10:51.649Z,67.59
2022-09-21T03:13:21.470Z,67.74
2022-09-21T03:15:50.424Z,67.70
2022-09-21T03:18:19.273Z,67.79
2022-09-21T03:20:48.098Z,67.76
2022-09-21T03:23:16.940Z,67.73
2022-09-21T03:25:49.337Z,67.54
2022-09-21T03:28:19.228Z,67.56
2022-09-21T03:30:52.691Z,67.46
2022-09-21T03:33:22.536Z,67.57
2022-09-21T03:35:52.734Z,67.75
2022-09-21T03:38:21.989Z,67.78
2022-09-21T03:40:51.171Z,67.68
2022-09-21T03:43:21.496Z,67.54
2022-09-21T03:45:50.394Z,67.67
2022-09-21T03:48:19.322Z,67.78
2022-09-21T03:50:48.490Z,67.92
2022-09-21T03:53:18.094Z,68.03
2022-09-21T03:55:46.967Z,67.96
2022-09-21T03:58:17.306Z,68.14
2022-09-21T04:00:46.748Z,68.00
2022-09-21T04:03:15.672Z,68.13
2022-09-21T04:05:44.716Z,68.22
2022-09-21T04:08:13.794Z,68.24
2022-09-21T04:10:44.519Z,68.33
2022-09-21T04:13:17.003Z,68.30
2022-09-21T04:15:45.911Z,68.22
2022-09-21T04:18:15.466Z,68.26
2022-09-21T04:20:44.906Z,68.24
2022-09-21T04:23:13.911Z,68.40
2022-09-21T04:25:45.316Z,68.47
2022-09-21T04:28:15.319Z,68.23
2022-09-21T04:30:44.661Z,68.32
2022-09-21T04:33:15.835Z,68.25
2022-09-21T04:35:45.252Z,68.50
2022-09-21T04:38:14.406Z,68.69
2022-09-21T04:40:43.729Z,68.60
2022-09-21T04:43:12.643Z,68.47
2022-09-21T04:45:42.815Z,68.52
2022-09-21T04:48:12.337Z,68.57
2022-09-21T04:50:41.984Z,68.55
2022-09-21T04:53:11.453Z,68.55
2022-09-21T04:55:40.958Z,68.57
2022-09-21T04:58:11.430Z,68.53
2022-09-21T05:00:40.555Z,68.59
2022-09-21T05:03:10.220Z,68.37
2022-09-21T05:05:38.926Z,68.72
2022-09-21T05:08:07.955Z,68.71
2022-09-21T05:10:36.939Z,68.60
2022-09-21T05:13:09.671Z,68.41
2022-09-21T05:15:39.908Z,68.38
2022-09-21T05:18:10.356Z,68.46
2022-09-21T05:20:39.238Z,68.31
2022-09-21T05:23:13.602Z,68.57
2022-09-21T05:25:46.602Z,68.45
2022-09-21T05:28:19.276Z,68.55
2022-09-21T05:31:17.929Z,68.40
2022-09-21T05:34:06.865Z,68.69
2022-09-21T05:36:53.899Z,68.47
2022-09-21T05:39:23.443Z,68.67
2022-09-21T05:41:52.716Z,68.65
2022-09-21T05:44:24.546Z,68.74
2022-09-21T05:47:24.676Z,68.68
2022-09-21T05:50:31.399Z,68.65
2022-09-21T05:53:27.926Z,68.74
2022-09-21T05:55:58.535Z,68.79
2022-09-21T05:58:48.886Z,68.47
2022-09-21T06:01:29.960Z,68.54
2022-09-21T06:04:03.818Z,68.52
2022-09-21T06:06:34.987Z,68.58
2022-09-21T06:09:04.480Z,68.57
2022-09-21T06:11:35.056Z,68.59
2022-09-21T06:14:07.578Z,68.57
2022-09-21T06:16:42.629Z,68.57
2022-09-21T06:19:14.038Z,68.64
2022-09-21T06:21:44.775Z,68.76
2022-09-21T06:24:14.180Z,68.68
2022-09-21T06:26:43.880Z,68.66
2022-09-21T06:29:13.401Z,68.78
2022-09-21T06:31:43.540Z,68.60
2022-09-21T06:34:12.831Z,68.72
2022-09-21T06:36:44.657Z,68.83
2022-09-21T06:39:15.737Z,68.53
2022-09-21T06:41:44.911Z,68.48
2022-09-21T06:44:13.689Z,68.75
2022-09-21T06:46:42.729Z,68.63
2022-09-21T06:49:11.893Z,68.61
2022-09-21T06:51:44.247Z,68.80
2022-09-21T06:54:13.200Z,68.77
2022-09-21T06:56:45.338Z,68.68
2022-09-21T06:59:15.619Z,68.44
2022-09-21T07:01:45.630Z,68.71
2022-09-21T07:04:23.127Z,68.48
2022-09-21T07:06:56.859Z,68.23
2022-09-21T07:12:16.673Z,68.38
2022-09-21T07:14:46.030Z,68.42
2022-09-21T07:17:16.223Z,68.23
2022-09-21T07:19:46.111Z,68.49
2022-09-21T07:22:14.823Z,68.41
2022-09-21T07:24:45.405Z,68.28
2022-09-21T07:27:15.444Z,68.18
2022-09-21T07:29:47.883Z,67.76
2022-09-21T07:32:18.202Z,67.60
2022-09-21T07:34:47.822Z,67.60
2022-09-21T07:37:16.687Z,67.43
2022-09-21T07:39:46.392Z,67.75
2022-09-21T07:42:15.373Z,67.79
2022-09-21T07:44:44.953Z,67.57
2022-09-21T07:47:15.615Z,67.79
2022-09-21T07:49:46.973Z,67.92
2022-09-21T07:52:16.388Z,67.77
2022-09-21T07:54:47.723Z,67.90
2022-09-21T07:57:36.999Z,67.97
2022-09-21T08:00:08.470Z,67.85
2022-09-21T08:02:45.132Z,67.72
2022-09-21T08:05:17.181Z,67.84
2022-09-21T08:07:48.837Z,67.84
2022-09-21T08:10:19.251Z,67.53
2022-09-21T08:13:15.776Z,67.46
2022-09-21T08:15:50.213Z,67.36
2022-09-21T08:18:22.044Z,67.41
2022-09-21T08:20:59.617Z,67.10
2022-09-21T08:23:30.872Z,67.12
2022-09-21T08:26:02.386Z,66.83
2022-09-21T08:28:39.427Z,66.45
2022-09-21T08:31:11.867Z,65.53
2022-09-21T08:33:42.226Z,64.98
2022-09-21T08:36:13.572Z,63.64
2022-09-21T08:38:42.827Z,63.42
2022-09-21T08:41:45.475Z,62.94
2022-09-21T08:44:32.846Z,62.97
2022-09-21T08:47:13.326Z,62.83
2022-09-21T08:49:51.658Z,61.60
2022-09-21T08:52:22.417Z,62.56
2022-09-21T08:54:59.390Z,63.27
2022-09-21T08:57:32.161Z,63.42
2022-09-21T09:00:02.591Z,62.97
2022-09-21T09:02:50.724Z,62.80
2022-09-21T09:05:34.771Z,63.12
2022-09-21T09:08:32.094Z,63.93
2022-09-21T09:11:24.508Z,64.23
2022-09-21T09:14:02.502Z,63.78
2022-09-21T09:16:34.435Z,62.66
2022-09-21T09:19:12.967Z,61.26
2022-09-21T09:21:44.296Z,61.12
2022-09-21T09:24:28.192Z,62.11
2022-09-21T09:27:07.897Z,62.66
2022-09-21T09:29:49.519Z,62.52
2022-09-21T09:32:19.147Z,62.76
2022-09-21T09:35:07.761Z,62.50
2022-09-21T09:37:40.881Z,61.66
2022-09-21T09:40:14.987Z,60.31
2022-09-21T09:42:46.733Z,59.30
2022-09-21T09:45:15.452Z,59.52
2022-09-21T09:48:10.744Z,60.41
2022-09-21T09:50:41.254Z,59.61
2022-09-21T09:53:22.852Z,59.65
2022-09-21T09:55:54.818Z,60.44
2022-09-21T09:58:35.692Z,58.11
2022-09-21T10:01:04.712Z,57.13
2022-09-21T10:03:33.577Z,56.66
2022-09-21T10:06:02.751Z,56.06
2022-09-21T10:08:46.860Z,56.22
2022-09-21T10:11:18.382Z,54.93
2022-09-21T10:13:49.672Z,54.34
2022-09-21T10:16:19.193Z,54.47
2022-09-21T10:19:01.904Z,54.79
2022-09-21T10:21:51.353Z,55.18
2022-09-21T10:24:28.758Z,53.91
2022-09-21T10:27:05.859Z,54.80
2022-09-21T10:29:47.413Z,55.55
2022-09-21T10:32:17.217Z,56.78
2022-09-21T10:35:18.436Z,57.25
2022-09-21T10:37:54.754Z,57.36
2022-09-21T10:40:27.525Z,57.73
2022-09-21T10:42:59.306Z,58.26
2022-09-21T10:45:33.257Z,57.92
2022-09-21T10:48:16.967Z,57.66
2022-09-21T10:50:49.897Z,57.21
2022-09-21T10:53:34.719Z,56.98
2022-09-21T10:56:17.743Z,56.98
2022-09-21T10:59:20.107Z,56.53
2022-09-21T11:01:56.128Z,56.44
2022-09-21T11:04:46.788Z,56.56
2022-09-21T11:07:32.583Z,56.72
2022-09-21T11:10:42.743Z,56.77
2022-09-21T11:13:33.855Z,56.28
2022-09-21T11:16:22.910Z,56.27
2022-09-21T11:19:31.534Z,56.18
2022-09-21T11:22:22.085Z,56.29
2022-09-21T11:24:54.496Z,55.54
2022-09-21T11:27:36.709Z,55.14
2022-09-21T11:30:17.634Z,55.29
2022-09-21T11:33:19.476Z,55.02
2022-09-21T11:36:00.480Z,54.11
2022-09-21T11:38:57.783Z,54.40
2022-09-21T11:41:26.621Z,54.17
2022-09-21T11:43:55.998Z,54.44
2022-09-21T11:46:43.778Z,54.52
2022-09-21T11:49:34.821Z,54.41
2022-09-21T11:52:17.423Z,54.26
2022-09-21T11:54:56.968Z,53.92
2022-09-21T11:57:58.936Z,53.12
2022-09-21T12:00:35.091Z,51.91
2022-09-21T12:03:35.888Z,52.68
2022-09-21T12:06:13.767Z,52.43
2022-09-21T12:08:54.842Z,52.29
2022-09-21T12:11:44.901Z,51.33
2022-09-21T12:14:29.631Z,52.10
2022-09-21T12:17:51.172Z,52.07
2022-09-21T12:20:43.131Z,52.00
2022-09-21T12:23:47.510Z,52.74
2022-09-21T12:26:22.771Z,51.72
2022-09-21T12:29:01.187Z,51.64
2022-09-21T12:31:45.626Z,50.70
2022-09-21T12:34:25.407Z,51.15
2022-09-21T12:37:15.689Z,50.82
2022-09-21T12:40:03.386Z,50.18
2022-09-21T12:42:49.199Z,50.84
2022-09-21T12:45:32.623Z,50.50
2022-09-21T12:48:43.024Z,50.26
2022-09-21T12:51:25.082Z,50.06
2022-09-21T12:54:02.783Z,50.51
2022-09-21T12:56:34.704Z,50.64
2022-09-21T12:59:31.756Z,50.78
2022-09-21T13:02:14.567Z,50.54
2022-09-21T13:04:51.179Z,50.41
2022-09-21T13:07:36.706Z,50.52
2022-09-21T13:10:20.022Z,50.55
2022-09-21T13:13:26.902Z,50.83
2022-09-21T13:16:00.402Z,50.81
2022-09-21T13:18:36.755Z,50.73
2022-09-21T13:21:30.400Z,50.50
2022-09-21T13:24:26.892Z,50.05
2022-09-21T13:27:00.404Z,50.18
2022-09-21T13:29:35.845Z,50.01
2022-09-21T13:32:12.673Z,50.09
2022-09-21T13:34:45.747Z,50.40
2022-09-21T13:37:27.845Z,50.44
2022-09-21T13:40:04.390Z,50.71
2022-09-21T13:42:33.327Z,50.93
2022-09-21T13:45:36.358Z,51.12
2022-09-21T13:48:20.749Z,51.33
2022-09-21T13:50:49.692Z,51.56
2022-09-21T13:53:22.951Z,51.51
2022-09-21T13:55:55.252Z,51.68
2022-09-21T13:58:35.245Z,51.82
2022-09-21T14:01:35.822Z,51.85
2022-09-21T14:04:39.444Z,51.79
2022-09-21T14:07:10.279Z,51.96
2022-09-21T14:09:55.353Z,51.91
2022-09-21T14:12:28.700Z,51.97
2022-09-21T14:15:39.882Z,52.02
2022-09-21T14:18:12.106Z,51.94
2022-09-21T14:20:44.117Z,51.95
2022-09-21T14:23:17.004Z,52.06
2022-09-21T14:25:53.781Z,52.07
2022-09-21T14:28:35.714Z,52.16
2022-09-21T14:31:17.930Z,52.33
2022-09-21T14:33:55.285Z,52.45
2022-09-21T14:36:38.392Z,52.65
2022-09-21T14:39:34.848Z,52.60
2022-09-21T14:42:12.803Z,52.46
2022-09-21T14:44:45.128Z,52.41
2022-09-21T14:47:20.694Z,52.58
2022-09-21T14:49:52.617Z,52.58
2022-09-21T14:52:32.372Z,52.64
2022-09-21T14:55:20.600Z,52.97
2022-09-21T14:58:02.378Z,52.87
2022-09-21T15:00:43.194Z,52.97
2022-09-21T15:03:37.367Z,52.82
2022-09-21T15:06:45.951Z,52.71
2022-09-21T15:09:37.266Z,52.73
2022-09-21T15:12:54.174Z,52.78
2022-09-21T15:15:44.623Z,52.97
2022-09-21T15:18:21.333Z,53.20
2022-09-21T15:21:04.913Z,53.35
2022-09-21T15:23:40.475Z,53.53
2022-09-21T15:26:24.417Z,53.62
2022-09-21T15:29:14.902Z,53.72
2022-09-21T15:31:47.721Z,53.86
2022-09-21T15:34:22.281Z,53.84
2022-09-21T15:36:53.417Z,53.95
2022-09-21T15:39:25.130Z,53.98
2022-09-21T15:42:06.907Z,54.10
2022-09-21T15:44:41.225Z,54.26
2022-09-21T15:47:14.197Z,54.25
2022-09-21T15:49:46.570Z,54.31
2022-09-21T15:52:25.718Z,54.34
2022-09-21T15:55:03.299Z,54.40
2022-09-21T15:57:40.980Z,54.59
2022-09-21T16:00:17.462Z,54.70
2022-09-21T16:03:21.777Z,54.78
2022-09-21T16:05:55.845Z,54.95
2022-09-21T16:08:28.088Z,55.03
2022-09-21T16:11:31.112Z,55.04
2022-09-21T16:14:32.980Z,55.21
2022-09-21T16:17:14.660Z,55.23
2022-09-21T16:19:51.476Z,55.54
2022-09-21T16:22:30.179Z,55.52
2022-09-21T16:25:02.434Z,55.63
2022-09-21T16:27:35.107Z,55.69
2022-09-21T16:30:05.163Z,55.86
2022-09-21T16:32:38.301Z,56.02
2022-09-21T16:35:31.960Z,56.10
2022-09-21T16:38:02.967Z,56.17
2022-09-21T16:40:36.365Z,56.20
2022-09-21T16:43:06.492Z,56.10
2022-09-21T16:45:36.080Z,56.41
2022-09-21T16:48:08.382Z,56.23
2022-09-21T16:50:43.584Z,56.57
2022-09-21T16:53:20.156Z,56.52
2022-09-21T16:55:50.596Z,56.51
2022-09-21T16:58:24.081Z,56.70
2022-09-21T17:00:56.450Z,56.79
2022-09-21T17:03:26.165Z,56.72
2022-09-21T17:05:57.701Z,56.78
2022-09-21T17:08:30.614Z,57.00
2022-09-21T17:11:01.829Z,57.02
2022-09-21T17:14:06.370Z,56.94
2022-09-21T17:16:37.198Z,57.11
2022-09-21T17:19:10.768Z,57.31
2022-09-21T17:21:41.729Z,57.14
2022-09-21T17:24:32.748Z,57.33
2022-09-21T17:27:05.022Z,57.38
2022-09-21T17:29:37.632Z,57.59
2022-09-21T17:32:11.406Z,57.51
2022-09-21T17:34:42.835Z,57.65
2022-09-21T17:37:14.862Z,57.66
2022-09-21T17:39:47.679Z,57.69
2022-09-21T17:42:25.294Z,57.81
2022-09-21T17:45:13.965Z,57.79
2022-09-21T17:47:44.495Z,57.83
2022-09-21T17:50:13.193Z,58.15
2022-09-21T17:53:06.956Z,58.05
2022-09-21T17:55:40.244Z,58.13
2022-09-21T17:58:25.915Z,58.20
2022-09-21T18:01:12.092Z,58.22
2022-09-21T18:03:45.101Z,58.46
2022-09-21T18:06:18.715Z,58.31
2022-09-21T18:08:48.038Z,58.34
2022-09-21T18:11:38.965Z,58.39
2022-09-21T18:14:25.519Z,58.47
2022-09-21T18:17:21.687Z,58.61
2022-09-21T18:20:12.931Z,58.60
2022-09-21T18:23:24.018Z,58.73
2022-09-21T18:25:58.888Z,58.76
2022-09-21T18:28:49.496Z,58.93
2022-09-21T18:31:52.886Z,58.77
2022-09-21T18:34:56.463Z,58.89
2022-09-21T18:37:51.557Z,58.96
2022-09-21T18:40:34.344Z,59.03
2022-09-21T18:43:47.791Z,59.07
2022-09-21T18:46:49.479Z,59.12
2022-09-21T18:49:49.038Z,59.35
2022-09-21T18:53:02.761Z,59.40
2022-09-21T18:55:37.133Z,59.41
2022-09-21T18:58:08.987Z,59.44
2022-09-21T19:00:40.150Z,59.58
2022-09-21T19:03:18.498Z,59.64
2022-09-21T19:06:21.581Z,59.64
2022-09-21T19:09:16.391Z,59.54
2022-09-21T19:11:58.856Z,59.80
2022-09-21T19:14:53.918Z,59.83
2022-09-21T19:17:29.758Z,59.78
2022-09-21T19:20:12.158Z,60.04
2022-09-21T19:23:04.740Z,59.90
2022-09-21T19:25:49.887Z,60.14
2022-09-21T19:28:43.558Z,60.16
2022-09-21T19:31:20.726Z,60.22
2022-09-21T19:33:57.725Z,60.33
2022-09-21T19:36:29.867Z,60.34
2022-09-21T19:39:00.250Z,60.37
2022-09-21T19:41:41.163Z,60.49
2022-09-21T19:45:08.057Z,60.51
2022-09-21T19:47:52.767Z,60.44
2022-09-21T19:50:23.168Z,60.58
2022-09-21T19:53:13.491Z,60.72
2022-09-21T19:56:06.003Z,60.96
2022-09-21T19:59:17.880Z,60.92
2022-09-21T20:01:57.252Z,60.86
2022-09-21T20:04:42.906Z,60.97
2022-09-21T20:08:04.662Z,61.00
2022-09-21T20:11:02.548Z,61.13
2022-09-21T20:13:45.794Z,61.00
2022-09-21T20:16:49.985Z,61.10
2022-09-21T20:19:53.472Z,61.10
2022-09-21T20:22:36.095Z,61.37
2022-09-21T20:25:24.027Z,61.52
2022-09-21T20:27:59.507Z,61.42
2022-09-21T20:30:35.096Z,61.43
2022-09-21T20:33:14.185Z,61.61
2022-09-21T20:35:44.304Z,61.72
2022-09-21T20:38:15.295Z,61.58
2022-09-21T20:40:47.515Z,61.97
2022-09-21T20:43:19.111Z,61.88
2022-09-21T20:45:51.381Z,62.12
2022-09-21T20:48:22.058Z,61.96
2022-09-21T20:50:51.501Z,61.99
2022-09-21T20:53:23.148Z,62.06
2022-09-21T20:55:59.531Z,62.21
2022-09-21T20:58:29.740Z,62.15
2022-09-21T21:01:10.428Z,62.10
2022-09-21T21:03:43.972Z,61.97
2022-09-21T21:06:21.736Z,62.04
2022-09-21T21:08:52.077Z,62.10
2022-09-21T21:11:21.934Z,62.06
2022-09-21T21:13:52.199Z,62.22
2022-09-21T21:16:23.016Z,62.42
2022-09-21T21:18:52.923Z,62.39
2022-09-21T21:21:25.506Z,62.23
2022-09-21T21:24:13.101Z,62.29
2022-09-21T21:27:01.182Z,62.34
2022-09-21T21:29:36.410Z,62.36
2022-09-21T21:32:07.832Z,62.43
2022-09-21T21:34:36.844Z,62.62
2022-09-21T21:37:07.998Z,62.46
2022-09-21T21:39:39.659Z,62.38
2022-09-21T21:42:09.602Z,62.65
2022-09-21T21:44:39.147Z,62.69
2022-09-21T21:47:27.834Z,62.55
2022-09-21T21:50:00.955Z,62.90
2022-09-21T21:52:30.956Z,63.23
2022-09-21T21:55:01.451Z,63.25
2022-09-21T21:57:30.234Z,63.34
2022-09-21T22:00:01.217Z,63.35
2022-09-21T22:02:30.124Z,63.46
2022-09-21T22:04:59.592Z,63.37
2022-09-21T22:07:29.625Z,63.49
2022-09-21T22:09:58.450Z,63.21
2022-09-21T22:12:29.394Z,62.98
2022-09-21T22:14:58.958Z,63.34
2022-09-21T22:17:31.102Z,63.33
2022-09-21T22:19:59.950Z,63.56
2022-09-21T22:22:30.979Z,63.65
2022-09-21T22:24:59.995Z,63.75
2022-09-21T22:27:30.499Z,63.64
2022-09-21T22:29:59.917Z,63.52
2022-09-21T22:32:30.369Z,63.39
2022-09-21T22:35:12.123Z,63.41
2022-09-21T22:37:43.964Z,63.60
2022-09-21T22:40:14.596Z,63.62
2022-09-21T22:42:47.535Z,63.60
2022-09-21T22:45:17.695Z,63.53
2022-09-21T22:47:47.661Z,63.79
2022-09-21T22:50:17.304Z,63.79
2022-09-21T22:52:48.223Z,63.72
2022-09-21T22:55:17.279Z,63.72
2022-09-21T22:57:46.137Z,63.74
2022-09-21T23:00:18.837Z,64.18
2022-09-21T23:02:54.318Z,64.39
2022-09-21T23:05:23.946Z,64.31
2022-09-21T23:07:55.205Z,64.27
2022-09-21T23:10:29.339Z,64.12
2022-09-21T23:13:05.042Z,64.20
2022-09-21T23:15:36.998Z,64.38
2022-09-21T23:18:07.685Z,64.57
2022-09-21T23:20:37.750Z,64.94
2022-09-21T23:23:06.742Z,64.56
2022-09-21T23:25:40.488Z,64.72
2022-09-21T23:28:10.322Z,64.83
2022-09-21T23:30:40.906Z,64.90
2022-09-21T23:33:12.318Z,65.02
2022-09-21T23:35:44.881Z,64.81
2022-09-21T23:38:16.167Z,64.66
2022-09-21T23:40:45.255Z,64.80
2022-09-21T23:43:15.619Z,64.81
2022-09-21T23:45:44.504Z,64.86
2022-09-21T23:48:14.813Z,64.95
2022-09-21T23:50:44.919Z,65.07
2022-09-21T23:53:14.521Z,65.02
2022-09-21T23:55:47.378Z,65.14
2022-09-21T23:58:17.266Z,65.50
